Time,TemperatureF,DewpointF,PressureIn,WindDirection,WindDirectionDegrees,WindSpeedMPH,WindSpeedGustMPH,Humidity,HourlyPrecipIn,Conditions,Clouds,dailyrainin,SolarRadiationWatts/m^2,SoftwareType,DateUTC
2013-03-06 00:01:00,41.5,40.7,29.70,SSW,194,0.0,3.0,97,0.00,,,0.00,0,Wunderground v.1.15,2013-03-06 08:01:00,
2013-03-06 00:06:00,41.5,40.7,29.70,SSW,204,0.0,3.0,97,0.00,,,0.00,0,Wunderground v.1.15,2013-03-06 08:06:00,
2013-03-06 00:11:00,41.5,41.0,29.70,SSW,209,0.0,1.0,98,0.00,,,0.00,0,Wunderground v.1.15,2013-03-06 08:11:00,
2013-03-06 00:17:00,41.5,41.0,29.70,SSW,209,0.0,1.0,98,0.00,,,0.00,0,Wunderground v.1.15,2013-03-06 08:17:00,
2013-03-06 00:22:00,41.5,41.0,29.70,SSW,209,0.0,1.0,98,0.00,,,0.00,0,Wunderground v.1.15,2013-03-06 08:22:00,
2013-03-06 00:27:00,41.5,41.0,29.70,SSW,209,0.0,2.0,98,0.00,,,0.00,0,Wunderground v.1.15,2013-03-06 08:27:00,
2013-03-06 00:32:00,41.5,41.0,29.69,SSW,209,0.0,1.0,98,0.00,,,0.00,0,Wunderground v.1.15,2013-03-06 08:32:00,
2013-03-06 00:37:00,41.5,41.0,29.69,West,261,1.0,1.0,98,0.00,,,0.00,0,Wunderground v.1.15,2013-03-06 08:37:00,
2013-03-06 00:43:00,41.5,41.0,29.69,SSW,209,0.0,1.0,98,0.00,,,0.00,0,Wunderground v.1.15,2013-03-06 08:43:00,
2013-03-06 00:48:00,41.5,41.0,29.68,SW,217,0.0,1.0,98,0.00,,,0.00,0,Wunderground v.1.15,2013-03-06 08:48:00,
2013-03-06 00:53:00,41.5,41.0,29.68,SW,217,0.0,2.0,98,0.00,,,0.00,0,Wunderground v.1.15,2013-03-06 08:53:00,
2013-03-06 00:58:00,41.5,41.0,29.68,SW,217,1.0,2.0,98,0.00,,,0.00,0,Wunderground v.1.15,2013-03-06 08:58:00,
2013-03-06 01:03:00,41.3,40.8,29.68,SW,219,1.0,1.0,98,0.00,,,0.00,0,Wunderground v.1.15,2013-03-06 09:03:00,
2013-03-06 01:09:00,41.3,40.8,29.68,SSW,211,0.0,1.0,98,0.00,,,0.00,0,Wunderground v.1.15,2013-03-06 09:09:00,
2013-03-06 01:14:00,41.3,40.8,29.68,SW,216,0.0,2.0,98,0.00,,,0.00,0,Wunderground v.1.15,2013-03-06 09:14:00,
2013-03-06 01:19:00,41.3,40.8,29.67,SW,216,1.0,3.0,98,0.00,,,0.00,0,Wunderground v.1.15,2013-03-06 09:19:00,
2013-03-06 01:24:00,41.3,40.8,29.67,SW,217,1.0,3.0,98,0.00,,,0.00,0,Wunderground v.1.15,2013-03-06 09:24:00,
2013-03-06 01:29:00,41.3,40.8,29.67,SW,217,1.0,3.0,98,0.00,,,0.00,0,Wunderground v.1.15,2013-03-06 09:29:00,
2013-03-06 01:35:00,41.3,40.8,29.67,WSW,238,0.0,1.0,98,0.00,,,0.00,0,Wunderground v.1.15,2013-03-06 09:35:00,
2013-03-06 01:40:00,41.3,40.8,29.67,WSW,254,1.0,1.0,98,0.00,,,0.00,0,Wunderground v.1.15,2013-03-06 09:40:00,
2013-03-06 01:45:00,41.3,40.8,29.67,WSW,244,0.0,1.0,98,0.00,,,0.00,0,Wunderground v.1.15,2013-03-06 09:45:00,
2013-03-06 01:50:00,41.3,40.8,29.67,WSW,240,0.0,1.0,98,0.00,,,0.00,0,Wunderground v.1.15,2013-03-06 09:50:00,
2013-03-06 01:55:00,41.3,40.8,29.67,South,177,0.0,1.0,98,0.00,,,0.00,0,Wunderground v.1.15,2013-03-06 09:55:00,
2013-03-06 02:00:00,41.5,41.0,29.66,SSW,197,2.0,2.0,98,0.00,,,0.00,0,Wunderground v.1.15,2013-03-06 10:00:00,
2013-03-06 02:05:00,41.5,41.0,29.66,SW,215,1.0,3.0,98,0.00,,,0.00,0,Wunderground v.1.15,2013-03-06 10:05:00,
2013-03-06 02:10:00,41.5,41.0,29.66,SW,214,0.0,1.0,98,0.00,,,0.00,0,Wunderground v.1.15,2013-03-06 10:10:00,
2013-03-06 02:15:00,41.5,41.0,29.65,SW,215,2.0,4.0,98,0.00,,,0.00,0,Wunderground v.1.15,2013-03-06 10:15:00,
2013-03-06 02:20:00,41.5,41.0,29.65,SW,215,2.0,2.0,98,0.00,,,0.00,0,Wunderground v.1.15,2013-03-06 10:20:00,
2013-03-06 02:25:00,41.5,41.0,29.65,WSW,248,0.0,3.0,98,0.00,,,0.00,0,Wunderground v.1.15,2013-03-06 10:25:00,
2013-03-06 02:30:00,41.5,41.0,29.64,WSW,248,2.0,2.0,98,0.00,,,0.00,0,Wunderground v.1.15,2013-03-06 10:30:00,
2013-03-06 02:35:00,41.5,41.0,29.64,WSW,248,0.0,3.0,98,0.00,,,0.00,0,Wunderground v.1.15,2013-03-06 10:35:00,
2013-03-06 02:40:00,41.5,41.0,29.64,SW,217,0.0,1.0,98,0.00,,,0.00,0,Wunderground v.1.15,2013-03-06 10:40:00,
2013-03-06 02:45:00,41.3,40.8,29.63,SW,217,2.0,2.0,98,0.00,,,0.00,0,Wunderground v.1.15,2013-03-06 10:45:00,
2013-03-06 02:50:00,41.3,40.8,29.63,SW,221,0.0,2.0,98,0.00,,,0.00,0,Wunderground v.1.15,2013-03-06 10:50:00,
2013-03-06 02:55:00,41.3,40.8,29.63,SW,220,2.0,4.0,98,0.00,,,0.00,0,Wunderground v.1.15,2013-03-06 10:55:00,
2013-03-06 03:00:00,41.3,40.8,29.62,North,355,1.0,1.0,98,0.00,,,0.00,0,Wunderground v.1.15,2013-03-06 11:00:00,
2013-03-06 03:05:00,41.5,41.0,29.62,NE,40,3.0,7.0,98,0.00,,,0.00,0,Wunderground v.1.15,2013-03-06 11:05:00,
2013-03-06 03:10:00,41.5,41.0,29.62,NNW,340,1.0,1.0,98,0.00,,,0.00,0,Wunderground v.1.15,2013-03-06 11:10:00,
2013-03-06 03:15:00,41.5,41.0,29.62,NNE,32,0.0,2.0,98,0.00,,,0.00,0,Wunderground v.1.15,2013-03-06 11:15:00,
2013-03-06 03:20:00,41.5,41.0,29.62,NW,309,0.0,1.0,98,0.00,,,0.00,0,Wunderground v.1.15,2013-03-06 11:20:00,
2013-03-06 03:25:00,41.3,40.8,29.62,NE,36,0.0,7.0,98,0.00,,,0.00,0,Wunderground v.1.15,2013-03-06 11:25:00,
2013-03-06 03:30:00,41.3,40.8,29.61,North,355,6.0,6.0,98,0.00,,,0.00,0,Wunderground v.1.15,2013-03-06 11:30:00,
2013-03-06 03:35:00,41.3,40.8,29.61,NNW,344,0.0,6.0,98,0.00,,,0.00,0,Wunderground v.1.15,2013-03-06 11:35:00,
2013-03-06 03:40:00,41.5,41.0,29.61,SW,223,0.0,1.0,98,0.00,,,0.00,0,Wunderground v.1.15,2013-03-06 11:40:00,
2013-03-06 03:45:00,41.3,40.8,29.61,SW,223,1.0,2.0,98,0.00,,,0.00,0,Wunderground v.1.15,2013-03-06 11:45:00,
2013-03-06 03:50:00,41.3,40.8,29.61,SSW,210,0.0,2.0,98,0.00,,,0.00,0,Wunderground v.1.15,2013-03-06 11:50:00,
2013-03-06 03:55:00,41.2,40.7,29.61,SSW,194,2.0,2.0,98,0.00,,,0.00,0,Wunderground v.1.15,2013-03-06 11:55:00,
2013-03-06 04:00:00,41.2,40.7,29.61,SW,215,3.0,3.0,98,0.00,,,0.00,0,Wunderground v.1.15,2013-03-06 12:00:00,
2013-03-06 04:05:00,41.2,40.7,29.61,SSW,201,1.0,3.0,98,0.00,,,0.00,0,Wunderground v.1.15,2013-03-06 12:05:00,
2013-03-06 04:10:00,41.2,40.7,29.61,SSW,200,1.0,2.0,98,0.00,,,0.00,0,Wunderground v.1.15,2013-03-06 12:10:00,
2013-03-06 04:15:00,41.2,40.7,29.61,SSW,200,0.0,2.0,98,0.00,,,0.01,0,Wunderground v.1.15,2013-03-06 12:15:00,
2013-03-06 04:20:00,41.2,40.7,29.61,North,360,0.0,0.0,98,0.00,,,0.01,0,Wunderground v.1.15,2013-03-06 12:20:00,
2013-03-06 04:25:00,41.2,40.7,29.61,North,5,3.0,5.0,98,0.00,,,0.01,0,Wunderground v.1.15,2013-03-06 12:25:00,
2013-03-06 04:30:00,41.3,40.8,29.60,NNW,342,0.0,5.0,98,0.00,,,0.01,0,Wunderground v.1.15,2013-03-06 12:30:00,
2013-03-06 04:35:00,41.3,40.8,29.60,SE,144,0.0,5.0,98,0.00,,,0.01,0,Wunderground v.1.15,2013-03-06 12:35:00,
2013-03-06 04:40:00,41.3,40.8,29.60,NNW,343,1.0,4.0,98,0.00,,,0.01,0,Wunderground v.1.15,2013-03-06 12:40:00,
2013-03-06 04:45:00,41.5,41.0,29.59,NNE,21,3.0,6.0,98,0.00,,,0.01,0,Wunderground v.1.15,2013-03-06 12:45:00,
2013-03-06 04:50:00,41.6,41.3,29.59,North,349,5.0,6.0,99,0.00,,,0.01,0,Wunderground v.1.15,2013-03-06 12:50:00,
2013-03-06 04:55:00,41.8,41.5,29.59,North,9,0.0,6.0,99,0.00,,,0.01,0,Wunderground v.1.15,2013-03-06 12:55:00,
2013-03-06 05:00:00,41.8,41.5,29.59,NE,35,2.0,3.0,99,0.00,,,0.01,0,Wunderground v.1.15,2013-03-06 13:00:00,
2013-03-06 05:05:00,41.8,41.5,29.59,North,360,2.0,5.0,99,0.00,,,0.01,0,Wunderground v.1.15,2013-03-06 13:05:00,
2013-03-06 05:10:00,41.9,41.6,29.59,NNE,26,2.0,4.0,99,0.00,,,0.01,0,Wunderground v.1.15,2013-03-06 13:10:00,
2013-03-06 05:15:00,41.9,41.6,29.59,NNE,17,6.0,10.0,99,0.00,,,0.01,0,Wunderground v.1.15,2013-03-06 13:15:00,
2013-03-06 05:20:00,41.9,41.6,29.59,NE,55,0.0,4.0,99,0.00,,,0.01,0,Wunderground v.1.15,2013-03-06 13:20:00,
2013-03-06 05:25:00,41.9,41.4,29.59,North,360,5.0,10.0,98,0.00,,,0.01,0,Wunderground v.1.15,2013-03-06 13:25:00,
2013-03-06 05:30:00,42.1,41.6,29.59,NE,50,2.0,3.0,98,0.00,,,0.01,0,Wunderground v.1.15,2013-03-06 13:30:00,
2013-03-06 05:35:00,42.1,41.6,29.59,NE,52,0.0,5.0,98,0.00,,,0.01,0,Wunderground v.1.15,2013-03-06 13:35:00,
2013-03-06 05:40:00,41.9,41.4,29.59,West,274,4.0,4.0,98,0.00,,,0.01,0,Wunderground v.1.15,2013-03-06 13:40:00,
2013-03-06 05:45:00,41.9,41.4,29.58,North,355,2.0,5.0,98,0.00,,,0.01,0,Wunderground v.1.15,2013-03-06 13:45:00,
2013-03-06 05:50:00,41.9,41.4,29.58,NE,46,2.0,6.0,98,0.00,,,0.01,0,Wunderground v.1.15,2013-03-06 13:50:00,
2013-03-06 05:55:00,41.9,41.4,29.58,North,360,1.0,6.0,98,0.00,,,0.01,0,Wunderground v.1.15,2013-03-06 13:55:00,
2013-03-06 06:00:00,41.9,41.4,29.58,West,261,2.0,3.0,98,0.00,,,0.01,0,Wunderground v.1.15,2013-03-06 14:00:00,
2013-03-06 06:05:00,41.9,41.4,29.58,North,5,3.0,6.0,98,0.00,,,0.01,0,Wunderground v.1.15,2013-03-06 14:05:00,
2013-03-06 06:11:00,41.9,41.4,29.58,SW,236,1.0,3.0,98,0.00,,,0.01,0,Wunderground v.1.15,2013-03-06 14:11:00,
2013-03-06 06:16:00,41.9,41.1,29.57,West,275,3.0,8.0,97,0.00,,,0.01,0,Wunderground v.1.15,2013-03-06 14:16:00,
2013-03-06 06:21:00,41.9,41.1,29.57,NNW,333,0.0,9.0,97,0.00,,,0.01,0,Wunderground v.1.15,2013-03-06 14:21:00,
2013-03-06 06:26:00,41.9,41.1,29.57,NNE,30,0.0,9.0,97,0.00,,,0.01,0,Wunderground v.1.15,2013-03-06 14:26:00,
2013-03-06 06:31:00,41.9,41.1,29.57,North,9,0.0,5.0,97,0.00,,,0.01,0,Wunderground v.1.15,2013-03-06 14:31:00,
2013-03-06 06:36:00,41.9,41.1,29.57,NNE,14,5.0,5.0,97,0.00,,,0.01,0,Wunderground v.1.15,2013-03-06 14:36:00,
2013-03-06 06:41:00,41.9,40.8,29.57,NNW,334,3.0,3.0,96,0.00,,,0.01,0,Wunderground v.1.15,2013-03-06 14:41:00,
2013-03-06 06:46:00,41.9,40.8,29.56,WSW,254,2.0,8.0,96,0.00,,,0.01,0,Wunderground v.1.15,2013-03-06 14:46:00,
2013-03-06 06:51:00,41.9,40.8,29.56,West,279,1.0,6.0,96,0.00,,,0.01,0,Wunderground v.1.15,2013-03-06 14:51:00,
2013-03-06 06:56:00,41.9,40.8,29.56,North,11,3.0,6.0,96,0.00,,,0.01,0,Wunderground v.1.15,2013-03-06 14:56:00,
2013-03-06 07:01:00,41.9,40.8,29.56,West,275,1.0,5.0,96,0.00,,,0.01,0,Wunderground v.1.15,2013-03-06 15:01:00,
2013-03-06 07:06:00,41.9,40.6,29.56,NNW,337,0.0,5.0,95,0.00,,,0.01,5,Wunderground v.1.15,2013-03-06 15:06:00,
2013-03-06 07:11:00,42.1,40.8,29.56,NNW,338,4.0,7.0,95,0.00,,,0.01,5,Wunderground v.1.15,2013-03-06 15:11:00,
2013-03-06 07:16:00,42.1,40.8,29.56,NE,43,3.0,7.0,95,0.00,,,0.01,7,Wunderground v.1.15,2013-03-06 15:16:00,
2013-03-06 07:21:00,42.2,40.9,29.56,NNE,22,0.0,4.0,95,0.00,,,0.01,7,Wunderground v.1.15,2013-03-06 15:21:00,
2013-03-06 07:26:00,42.2,40.9,29.56,North,355,3.0,7.0,95,0.00,,,0.01,9,Wunderground v.1.15,2013-03-06 15:26:00,
2013-03-06 07:31:00,42.2,40.6,29.56,West,264,0.0,7.0,94,0.00,,,0.01,11,Wunderground v.1.15,2013-03-06 15:31:00,
2013-03-06 07:36:00,42.3,40.7,29.56,NNW,334,0.0,9.0,94,0.00,,,0.01,14,Wunderground v.1.15,2013-03-06 15:36:00,
2013-03-06 07:41:00,42.3,40.7,29.56,West,272,0.0,3.0,94,0.00,,,0.01,18,Wunderground v.1.15,2013-03-06 15:41:00,
2013-03-06 07:46:00,42.3,40.4,29.56,SW,236,6.0,8.0,93,0.00,,,0.01,23,Wunderground v.1.15,2013-03-06 15:46:00,
2013-03-06 07:51:00,42.5,40.6,29.56,SE,124,1.0,3.0,93,0.00,,,0.01,30,Wunderground v.1.15,2013-03-06 15:51:00,
2013-03-06 07:56:00,42.5,40.6,29.56,SW,235,4.0,10.0,93,0.00,,,0.01,37,Wunderground v.1.15,2013-03-06 15:56:00,
2013-03-06 08:01:00,42.5,40.6,29.56,South,182,2.0,4.0,93,0.00,,,0.01,33,Wunderground v.1.15,2013-03-06 16:01:00,
2013-03-06 08:06:00,42.6,40.4,29.56,WNW,284,2.0,8.0,92,0.00,,,0.01,30,Wunderground v.1.15,2013-03-06 16:06:00,
2013-03-06 08:11:00,42.6,40.4,29.56,North,5,0.0,2.0,92,0.00,,,0.01,32,Wunderground v.1.15,2013-03-06 16:11:00,
2013-03-06 08:16:00,42.8,40.6,29.57,ENE,78,3.0,9.0,92,0.00,,,0.01,33,Wunderground v.1.15,2013-03-06 16:16:00,
2013-03-06 08:21:00,42.8,40.6,29.57,SSW,207,3.0,4.0,92,0.00,,,0.01,33,Wunderground v.1.15,2013-03-06 16:21:00,
2013-03-06 08:26:00,42.8,40.6,29.57,NNE,28,0.0,9.0,92,0.00,,,0.01,30,Wunderground v.1.15,2013-03-06 16:26:00,
2013-03-06 08:31:00,42.9,40.7,29.57,North,5,2.0,6.0,92,0.00,,,0.01,32,Wunderground v.1.15,2013-03-06 16:31:00,
2013-03-06 08:36:00,43.1,40.9,29.57,North,355,1.0,10.0,92,0.00,,,0.01,35,Wunderground v.1.15,2013-03-06 16:36:00,
2013-03-06 08:41:00,43.1,40.9,29.57,NNE,31,0.0,8.0,92,0.00,,,0.01,30,Wunderground v.1.15,2013-03-06 16:41:00,
2013-03-06 08:46:00,43.1,40.9,29.58,North,5,0.0,8.0,92,0.00,,,0.01,30,Wunderground v.1.15,2013-03-06 16:46:00,
2013-03-06 08:51:00,43.1,40.9,29.58,NNE,33,2.0,5.0,92,0.00,,,0.01,30,Wunderground v.1.15,2013-03-06 16:51:00,
2013-03-06 08:56:00,43.2,40.8,29.58,SSE,153,0.0,8.0,91,0.00,,,0.01,30,Wunderground v.1.15,2013-03-06 16:56:00,
2013-03-06 09:01:00,43.2,40.8,29.57,SW,230,5.0,5.0,91,0.00,,,0.01,28,Wunderground v.1.15,2013-03-06 17:01:00,
2013-03-06 09:06:00,43.2,40.8,29.57,SW,221,1.0,5.0,91,0.00,,,0.01,28,Wunderground v.1.15,2013-03-06 17:06:00,
2013-03-06 09:11:00,43.1,40.7,29.57,NW,310,1.0,3.0,91,0.00,,,0.01,32,Wunderground v.1.15,2013-03-06 17:11:00,
2013-03-06 09:16:00,43.1,40.7,29.58,South,171,1.0,4.0,91,0.00,,,0.01,37,Wunderground v.1.15,2013-03-06 17:16:00,
2013-03-06 09:21:00,43.1,40.7,29.58,SSW,208,0.0,6.0,91,0.00,,,0.01,46,Wunderground v.1.15,2013-03-06 17:21:00,
2013-03-06 09:26:00,43.1,40.7,29.58,West,268,1.0,6.0,91,0.00,,,0.01,51,Wunderground v.1.15,2013-03-06 17:26:00,
2013-03-06 09:31:00,43.1,40.9,29.58,West,261,0.0,3.0,92,0.00,,,0.01,53,Wunderground v.1.15,2013-03-06 17:31:00,
2013-03-06 09:36:00,43.1,40.9,29.58,SSW,200,0.0,6.0,92,0.00,,,0.01,53,Wunderground v.1.15,2013-03-06 17:36:00,
2013-03-06 09:41:00,43.1,40.9,29.58,West,276,1.0,5.0,92,0.00,,,0.01,47,Wunderground v.1.15,2013-03-06 17:41:00,
2013-03-06 09:46:00,43.1,40.9,29.58,WNW,289,1.0,8.0,92,0.00,,,0.02,46,Wunderground v.1.15,2013-03-06 17:46:00,
2013-03-06 09:51:00,43.1,41.2,29.58,South,171,0.0,5.0,93,0.00,,,0.02,56,Wunderground v.1.15,2013-03-06 17:51:00,
2013-03-06 09:56:00,43.1,41.2,29.58,SSW,194,4.0,5.0,93,0.00,,,0.02,70,Wunderground v.1.15,2013-03-06 17:56:00,
2013-03-06 10:01:00,43.1,41.2,29.59,NW,309,0.0,4.0,93,0.00,,,0.02,81,Wunderground v.1.15,2013-03-06 18:01:00,
2013-03-06 10:07:00,43.1,41.2,29.59,SSW,200,0.0,6.0,93,0.00,,,0.02,81,Wunderground v.1.15,2013-03-06 18:07:00,
2013-03-06 10:12:00,43.1,41.2,29.59,WNW,284,2.0,5.0,93,0.00,,,0.02,76,Wunderground v.1.15,2013-03-06 18:12:00,
2013-03-06 10:17:00,43.1,41.5,29.59,West,280,4.0,7.0,94,0.00,,,0.03,74,Wunderground v.1.15,2013-03-06 18:17:00,
2013-03-06 10:22:00,43.1,41.5,29.59,WSW,239,0.0,2.0,94,0.00,,,0.03,76,Wunderground v.1.15,2013-03-06 18:22:00,
2013-03-06 10:27:00,42.9,41.3,29.59,NNE,13,5.0,5.0,94,0.00,,,0.03,69,Wunderground v.1.15,2013-03-06 18:27:00,
2013-03-06 10:32:00,43.1,41.5,29.59,NE,51,0.0,2.0,94,0.00,,,0.03,65,Wunderground v.1.15,2013-03-06 18:32:00,
2013-03-06 10:37:00,43.1,41.5,29.59,NNW,342,1.0,5.0,94,0.00,,,0.03,69,Wunderground v.1.15,2013-03-06 18:37:00,
2013-03-06 10:42:00,43.1,41.5,29.59,ESE,106,0.0,1.0,94,0.00,,,0.03,74,Wunderground v.1.15,2013-03-06 18:42:00,
2013-03-06 10:47:00,43.1,41.8,29.59,WSW,244,0.0,3.0,95,0.00,,,0.03,77,Wunderground v.1.15,2013-03-06 18:47:00,
2013-03-06 10:52:00,43.1,41.8,29.59,East,94,1.0,4.0,95,0.00,,,0.03,74,Wunderground v.1.15,2013-03-06 18:52:00,
2013-03-06 10:57:00,42.9,41.6,29.59,NNW,342,2.0,6.0,95,0.00,,,0.03,72,Wunderground v.1.15,2013-03-06 18:57:00,
2013-03-06 11:02:00,42.9,41.6,29.60,SW,219,0.0,2.0,95,0.00,,,0.03,74,Wunderground v.1.15,2013-03-06 19:02:00,
2013-03-06 11:07:00,42.9,41.6,29.60,SSW,212,0.0,3.0,95,0.00,,,0.04,83,Wunderground v.1.15,2013-03-06 19:07:00,
2013-03-06 11:12:00,42.9,41.6,29.60,SSW,205,0.0,3.0,95,0.00,,,0.04,86,Wunderground v.1.15,2013-03-06 19:12:00,
2013-03-06 11:17:00,42.9,41.6,29.60,West,277,0.0,4.0,95,0.00,,,0.04,86,Wunderground v.1.15,2013-03-06 19:17:00,
2013-03-06 11:22:00,42.9,41.6,29.60,NNW,334,1.0,3.0,95,0.00,,,0.04,79,Wunderground v.1.15,2013-03-06 19:22:00,
2013-03-06 11:27:00,42.9,41.6,29.60,WSW,253,0.0,3.0,95,0.00,,,0.04,79,Wunderground v.1.15,2013-03-06 19:27:00,
2013-03-06 11:32:00,42.9,41.6,29.61,West,267,1.0,6.0,95,0.00,,,0.04,83,Wunderground v.1.15,2013-03-06 19:32:00,
2013-03-06 11:37:00,42.9,41.6,29.61,SSW,207,2.0,7.0,95,0.00,,,0.05,81,Wunderground v.1.15,2013-03-06 19:37:00,
2013-03-06 11:42:00,42.8,41.5,29.61,SW,234,0.0,2.0,95,0.00,,,0.05,76,Wunderground v.1.15,2013-03-06 19:42:00,
2013-03-06 11:47:00,42.9,41.6,29.61,WSW,254,1.0,3.0,95,0.00,,,0.05,72,Wunderground v.1.15,2013-03-06 19:47:00,
2013-03-06 11:52:00,42.8,41.5,29.61,SW,224,0.0,3.0,95,0.00,,,0.05,67,Wunderground v.1.15,2013-03-06 19:52:00,
2013-03-06 11:57:00,42.8,41.5,29.61,NNE,30,0.0,3.0,95,0.00,,,0.06,67,Wunderground v.1.15,2013-03-06 19:57:00,
2013-03-06 12:02:00,42.8,41.5,29.61,SSW,200,0.0,2.0,95,0.00,,,0.06,63,Wunderground v.1.15,2013-03-06 20:02:00,
2013-03-06 12:07:00,42.8,41.5,29.61,South,175,0.0,7.0,95,0.00,,,0.06,67,Wunderground v.1.15,2013-03-06 20:07:00,
2013-03-06 12:12:00,42.8,41.5,29.61,SW,221,0.0,3.0,95,0.04,,,0.07,70,Wunderground v.1.15,2013-03-06 20:12:00,
2013-03-06 12:17:00,42.8,41.5,29.62,WNW,284,0.0,3.0,95,0.04,,,0.07,74,Wunderground v.1.15,2013-03-06 20:17:00,
2013-03-06 12:22:00,42.8,41.5,29.62,SSW,193,0.0,4.0,95,0.04,,,0.07,79,Wunderground v.1.15,2013-03-06 20:22:00,
2013-03-06 12:27:00,42.8,41.7,29.62,SSW,200,0.0,4.0,96,0.05,,,0.08,81,Wunderground v.1.15,2013-03-06 20:27:00,
2013-03-06 12:32:00,42.8,41.7,29.62,SSW,200,0.0,1.0,96,0.05,,,0.08,77,Wunderground v.1.15,2013-03-06 20:32:00,
2013-03-06 12:37:00,42.8,41.7,29.62,West,263,1.0,4.0,96,0.04,,,0.08,76,Wunderground v.1.15,2013-03-06 20:37:00,
2013-03-06 12:42:00,42.8,41.7,29.62,West,259,1.0,1.0,96,0.00,,,0.08,74,Wunderground v.1.15,2013-03-06 20:42:00,
2013-03-06 12:48:00,42.8,41.7,29.63,WSW,258,1.0,2.0,96,0.00,,,0.09,70,Wunderground v.1.15,2013-03-06 20:48:00,
2013-03-06 12:53:00,42.8,41.7,29.63,West,259,0.0,2.0,96,0.00,,,0.09,81,Wunderground v.1.15,2013-03-06 20:53:00,
2013-03-06 12:58:00,42.8,41.7,29.63,North,5,2.0,5.0,96,0.05,,,0.10,84,Wunderground v.1.15,2013-03-06 20:58:00,
2013-03-06 13:03:00,42.9,41.8,29.63,North,355,0.0,1.0,96,0.05,,,0.10,65,Wunderground v.1.15,2013-03-06 21:03:00,
2013-03-06 13:08:00,42.9,41.8,29.63,North,355,0.0,2.0,96,0.05,,,0.10,69,Wunderground v.1.15,2013-03-06 21:08:00,
2013-03-06 13:13:00,42.9,41.8,29.63,North,5,0.0,7.0,96,0.04,,,0.10,65,Wunderground v.1.15,2013-03-06 21:13:00,
2013-03-06 13:18:00,42.9,41.8,29.64,North,5,0.0,7.0,96,0.00,,,0.10,56,Wunderground v.1.15,2013-03-06 21:18:00,
2013-03-06 13:23:00,42.9,41.8,29.64,NW,321,0.0,3.0,96,0.00,,,0.10,54,Wunderground v.1.15,2013-03-06 21:23:00,
2013-03-06 13:28:00,42.9,42.1,29.64,NW,321,0.0,3.0,97,0.00,,,0.10,51,Wunderground v.1.15,2013-03-06 21:28:00,
2013-03-06 13:33:00,42.9,42.1,29.64,NW,321,0.0,0.0,97,0.00,,,0.11,42,Wunderground v.1.15,2013-03-06 21:33:00,
2013-03-06 13:38:00,42.9,42.1,29.64,NW,320,0.0,1.0,97,0.00,,,0.11,47,Wunderground v.1.15,2013-03-06 21:38:00,
2013-03-06 13:43:00,42.9,42.1,29.64,NW,320,0.0,1.0,97,0.00,,,0.11,49,Wunderground v.1.15,2013-03-06 21:43:00,
2013-03-06 13:48:00,42.9,42.1,29.64,NW,314,0.0,1.0,97,0.00,,,0.11,51,Wunderground v.1.15,2013-03-06 21:48:00,
2013-03-06 13:53:00,42.9,42.1,29.64,NW,314,0.0,0.0,97,0.00,,,0.11,53,Wunderground v.1.15,2013-03-06 21:53:00,
2013-03-06 13:58:00,42.9,42.1,29.64,NW,314,0.0,1.0,97,0.00,,,0.11,56,Wunderground v.1.15,2013-03-06 21:58:00,
2013-03-06 14:03:00,42.9,42.1,29.65,NW,314,0.0,0.0,97,0.00,,,0.11,56,Wunderground v.1.15,2013-03-06 22:03:00,
2013-03-06 14:08:00,43.1,42.3,29.65,NW,314,0.0,1.0,97,0.00,,,0.11,58,Wunderground v.1.15,2013-03-06 22:08:00,
2013-03-06 14:13:00,43.1,42.3,29.65,NW,314,0.0,0.0,97,0.00,,,0.12,56,Wunderground v.1.15,2013-03-06 22:13:00,
2013-03-06 14:18:00,43.1,42.3,29.65,NW,314,0.0,0.0,97,0.00,,,0.12,47,Wunderground v.1.15,2013-03-06 22:18:00,
2013-03-06 14:23:00,43.2,42.4,29.65,NW,314,0.0,1.0,97,0.00,,,0.12,40,Wunderground v.1.15,2013-03-06 22:23:00,
2013-03-06 14:28:00,43.2,42.4,29.65,NW,314,0.0,1.0,97,0.04,,,0.13,35,Wunderground v.1.15,2013-03-06 22:28:00,
2013-03-06 14:33:00,43.2,42.4,29.66,NW,314,0.0,1.0,97,0.04,,,0.13,25,Wunderground v.1.15,2013-03-06 22:33:00,
2013-03-06 14:38:00,43.3,42.5,29.66,NW,314,1.0,2.0,97,0.07,,,0.14,19,Wunderground v.1.15,2013-03-06 22:38:00,
2013-03-06 14:43:00,43.2,42.4,29.66,NE,39,2.0,4.0,97,0.06,,,0.14,21,Wunderground v.1.15,2013-03-06 22:43:00,
2013-03-06 14:48:00,43.2,42.4,29.67,NE,39,1.0,4.0,97,0.05,,,0.15,25,Wunderground v.1.15,2013-03-06 22:48:00,
2013-03-06 14:53:00,43.2,42.4,29.67,NE,39,1.0,2.0,97,0.05,,,0.15,30,Wunderground v.1.15,2013-03-06 22:53:00,
2013-03-06 14:58:00,43.2,42.4,29.67,NE,39,0.0,2.0,97,0.05,,,0.15,28,Wunderground v.1.15,2013-03-06 22:58:00,
2013-03-06 15:03:00,43.2,42.4,29.67,NNE,31,1.0,4.0,97,0.04,,,0.16,39,Wunderground v.1.15,2013-03-06 23:03:00,
2013-03-06 15:08:00,43.1,42.3,29.67,NNE,31,0.0,4.0,97,0.04,,,0.16,42,Wunderground v.1.15,2013-03-06 23:08:00,
2013-03-06 15:13:00,43.1,42.3,29.67,NNE,31,0.0,1.0,97,0.04,,,0.16,44,Wunderground v.1.15,2013-03-06 23:13:00,
2013-03-06 15:18:00,43.1,42.3,29.68,NNE,32,0.0,1.0,97,0.00,,,0.16,47,Wunderground v.1.15,2013-03-06 23:18:00,
2013-03-06 15:23:00,43.1,42.3,29.68,NNE,31,0.0,0.0,97,0.00,,,0.17,47,Wunderground v.1.15,2013-03-06 23:23:00,
2013-03-06 15:28:00,43.1,42.3,29.68,NNE,32,0.0,0.0,97,0.00,,,0.17,44,Wunderground v.1.15,2013-03-06 23:28:00,
2013-03-06 15:33:00,43.1,42.6,29.68,NNE,32,0.0,1.0,98,0.00,,,0.17,42,Wunderground v.1.15,2013-03-06 23:33:00,
2013-03-06 15:38:00,42.9,42.1,29.68,NNE,31,0.0,2.0,97,0.04,,,0.18,40,Wunderground v.1.15,2013-03-06 23:38:00,
2013-03-06 15:43:00,42.9,42.1,29.68,NNE,31,0.0,1.0,97,0.04,,,0.18,35,Wunderground v.1.15,2013-03-06 23:43:00,
2013-03-06 15:48:00,42.8,42.0,29.69,NNE,31,0.0,1.0,97,0.04,,,0.18,35,Wunderground v.1.15,2013-03-06 23:48:00,
2013-03-06 15:53:00,42.8,42.0,29.69,NNE,32,0.0,0.0,97,0.04,,,0.18,37,Wunderground v.1.15,2013-03-06 23:53:00,
2013-03-06 15:58:00,42.8,42.0,29.69,NNE,31,0.0,1.0,97,0.00,,,0.19,35,Wunderground v.1.15,2013-03-06 23:58:00,
2013-03-06 16:03:00,42.8,42.0,29.70,NNE,31,0.0,1.0,97,0.00,,,0.19,30,Wunderground v.1.15,2013-03-07 00:03:00,
2013-03-06 16:08:00,42.6,41.8,29.70,NNE,32,1.0,1.0,97,0.05,,,0.20,30,Wunderground v.1.15,2013-03-07 00:08:00,
2013-03-06 16:13:00,42.6,41.8,29.70,NNE,32,0.0,1.0,97,0.05,,,0.20,32,Wunderground v.1.15,2013-03-07 00:13:00,
2013-03-06 16:18:00,42.5,41.7,29.70,NNE,31,0.0,1.0,97,0.05,,,0.20,28,Wunderground v.1.15,2013-03-07 00:18:00,
2013-03-06 16:23:00,42.5,41.7,29.70,NNE,31,0.0,0.0,97,0.05,,,0.21,23,Wunderground v.1.15,2013-03-07 00:23:00,
2013-03-06 16:28:00,42.3,41.5,29.70,NNE,31,0.0,0.0,97,0.05,,,0.21,23,Wunderground v.1.15,2013-03-07 00:28:00,
2013-03-06 16:33:00,42.3,41.5,29.71,NNE,32,0.0,1.0,97,0.06,,,0.22,25,Wunderground v.1.15,2013-03-07 00:33:00,
2013-03-06 16:38:00,42.2,41.4,29.71,NNE,32,0.0,1.0,97,0.06,,,0.22,23,Wunderground v.1.15,2013-03-07 00:38:00,
2013-03-06 16:43:00,42.2,41.4,29.71,NNE,32,0.0,1.0,97,0.05,,,0.22,21,Wunderground v.1.15,2013-03-07 00:43:00,
2013-03-06 16:48:00,42.2,41.4,29.72,NNE,32,1.0,1.0,97,0.04,,,0.22,18,Wunderground v.1.15,2013-03-07 00:48:00,
2013-03-06 16:53:00,42.2,41.4,29.72,NNE,32,0.0,1.0,97,0.00,,,0.23,14,Wunderground v.1.15,2013-03-07 00:53:00,
2013-03-06 16:58:00,42.1,41.3,29.72,NNE,32,0.0,1.0,97,0.00,,,0.23,12,Wunderground v.1.15,2013-03-07 00:58:00,
2013-03-06 17:03:00,42.1,41.3,29.72,NNE,31,0.0,1.0,97,0.00,,,0.23,11,Wunderground v.1.15,2013-03-07 01:03:00,
2013-03-06 17:08:00,41.9,41.1,29.72,NNE,31,0.0,1.0,97,0.05,,,0.24,11,Wunderground v.1.15,2013-03-07 01:08:00,
2013-03-06 17:13:00,41.9,41.1,29.72,NNE,31,0.0,0.0,97,0.05,,,0.24,11,Wunderground v.1.15,2013-03-07 01:13:00,
2013-03-06 17:18:00,41.9,41.1,29.72,NNE,31,0.0,0.0,97,0.04,,,0.24,9,Wunderground v.1.15,2013-03-07 01:18:00,
2013-03-06 17:23:00,41.8,41.0,29.72,NNE,32,0.0,0.0,97,0.04,,,0.25,7,Wunderground v.1.15,2013-03-07 01:23:00,
2013-03-06 17:28:00,41.8,41.3,29.72,NNE,32,0.0,0.0,98,0.04,,,0.25,7,Wunderground v.1.15,2013-03-07 01:28:00,
2013-03-06 17:33:00,41.8,41.3,29.73,NNE,32,0.0,0.0,98,0.05,,,0.26,5,Wunderground v.1.15,2013-03-07 01:33:00,
2013-03-06 17:38:00,41.8,41.3,29.73,NNE,31,0.0,0.0,98,0.05,,,0.26,0,Wunderground v.1.15,2013-03-07 01:38:00,
2013-03-06 17:43:00,41.8,41.3,29.73,NNE,32,0.0,0.0,98,0.05,,,0.26,0,Wunderground v.1.15,2013-03-07 01:43:00,
2013-03-06 17:48:00,41.8,41.3,29.73,NNE,31,0.0,0.0,98,0.04,,,0.27,0,Wunderground v.1.15,2013-03-07 01:48:00,
2013-03-06 17:53:00,41.6,41.1,29.73,NNE,32,0.0,0.0,98,0.04,,,0.27,0,Wunderground v.1.15,2013-03-07 01:53:00,
2013-03-06 17:58:00,41.6,41.1,29.73,NNE,31,0.0,0.0,98,0.04,,,0.27,0,Wunderground v.1.15,2013-03-07 01:58:00,
2013-03-06 18:03:00,41.6,41.1,29.74,NNE,31,0.0,2.0,98,0.05,,,0.28,0,Wunderground v.1.15,2013-03-07 02:03:00,
2013-03-06 18:08:00,41.6,41.1,29.74,NNE,31,0.0,2.0,98,0.05,,,0.28,0,Wunderground v.1.15,2013-03-07 02:08:00,
2013-03-06 18:13:00,41.6,41.1,29.74,NNE,32,0.0,1.0,98,0.04,,,0.28,0,Wunderground v.1.15,2013-03-07 02:13:00,
2013-03-06 18:18:00,41.6,41.1,29.75,NNE,32,0.0,1.0,98,0.04,,,0.29,0,Wunderground v.1.15,2013-03-07 02:18:00,
2013-03-06 18:23:00,41.5,41.0,29.75,NNE,32,0.0,1.0,98,0.04,,,0.29,0,Wunderground v.1.15,2013-03-07 02:23:00,
2013-03-06 18:28:00,41.5,41.0,29.75,NNE,32,0.0,1.0,98,0.04,,,0.29,0,Wunderground v.1.15,2013-03-07 02:28:00,
2013-03-06 18:34:00,41.5,41.0,29.75,NNE,32,1.0,2.0,98,0.04,,,0.30,0,Wunderground v.1.15,2013-03-07 02:34:00,
2013-03-06 18:39:00,41.3,40.8,29.75,NNE,32,2.0,2.0,98,0.04,,,0.30,0,Wunderground v.1.15,2013-03-07 02:39:00,
2013-03-06 18:44:00,41.3,40.8,29.75,NNE,32,2.0,3.0,98,0.04,,,0.30,0,Wunderground v.1.15,2013-03-07 02:44:00,
2013-03-06 18:49:00,41.3,40.8,29.76,NNE,32,2.0,3.0,98,0.00,,,0.30,0,Wunderground v.1.15,2013-03-07 02:49:00,
2013-03-06 18:54:00,41.2,40.7,29.76,NNE,32,1.0,2.0,98,0.00,,,0.31,0,Wunderground v.1.15,2013-03-07 02:54:00,
2013-03-06 18:59:00,41.2,40.7,29.76,NNE,31,0.0,2.0,98,0.00,,,0.31,0,Wunderground v.1.15,2013-03-07 02:59:00,
2013-03-06 19:03:00,41.2,40.7,29.76,NNE,31,2.0,3.0,98,0.00,,,0.31,0,Wunderground v.1.15,2013-03-07 03:03:00,
2013-03-06 19:09:00,41.2,40.7,29.76,NNE,32,2.0,3.0,98,0.05,,,0.32,0,Wunderground v.1.15,2013-03-07 03:09:00,
2013-03-06 19:14:00,41.2,40.7,29.76,NNE,32,1.0,2.0,98,0.05,,,0.32,0,Wunderground v.1.15,2013-03-07 03:14:00,
2013-03-06 19:19:00,41.2,40.7,29.76,NNE,32,2.0,3.0,98,0.05,,,0.33,0,Wunderground v.1.15,2013-03-07 03:19:00,
2013-03-06 19:23:00,41.2,40.7,29.76,NNE,32,1.0,2.0,98,0.05,,,0.33,0,Wunderground v.1.15,2013-03-07 03:23:00,
2013-03-06 19:28:00,41.2,40.7,29.76,NNE,32,1.0,3.0,98,0.07,,,0.34,0,Wunderground v.1.15,2013-03-07 03:28:00,
2013-03-06 19:33:00,41.1,40.6,29.77,NNE,32,1.0,2.0,98,0.07,,,0.34,0,Wunderground v.1.15,2013-03-07 03:33:00,
2013-03-06 19:38:00,41.1,40.6,29.77,NNE,32,0.0,2.0,98,0.04,,,0.35,0,Wunderground v.1.15,2013-03-07 03:38:00,
2013-03-06 19:43:00,41.1,40.6,29.77,NNE,31,0.0,1.0,98,0.04,,,0.35,0,Wunderground v.1.15,2013-03-07 03:43:00,
2013-03-06 19:49:00,41.1,40.6,29.78,NNE,32,1.0,3.0,98,0.04,,,0.35,0,Wunderground v.1.15,2013-03-07 03:49:00,
2013-03-06 19:54:00,41.1,40.6,29.78,NNE,32,0.0,1.0,98,0.06,,,0.36,0,Wunderground v.1.15,2013-03-07 03:54:00,
2013-03-06 19:59:00,40.9,40.4,29.78,NNE,32,0.0,1.0,98,0.06,,,0.36,0,Wunderground v.1.15,2013-03-07 03:59:00,
2013-03-06 20:04:00,40.9,40.4,29.78,NNE,31,0.0,0.0,98,0.04,,,0.36,0,Wunderground v.1.15,2013-03-07 04:04:00,
2013-03-06 20:09:00,40.9,40.4,29.78,NNE,31,0.0,1.0,98,0.04,,,0.37,0,Wunderground v.1.15,2013-03-07 04:09:00,
2013-03-06 20:14:00,40.9,40.4,29.78,NNE,31,0.0,2.0,98,0.04,,,0.37,0,Wunderground v.1.15,2013-03-07 04:14:00,
2013-03-06 20:19:00,40.9,40.6,29.78,NNE,31,0.0,2.0,99,0.05,,,0.38,0,Wunderground v.1.15,2013-03-07 04:19:00,
2013-03-06 20:24:00,40.9,40.6,29.78,NNE,32,0.0,1.0,99,0.05,,,0.38,0,Wunderground v.1.15,2013-03-07 04:24:00,
2013-03-06 20:29:00,40.9,40.6,29.78,NNE,32,0.0,1.0,99,0.05,,,0.38,0,Wunderground v.1.15,2013-03-07 04:29:00,
2013-03-06 20:34:00,41.1,40.8,29.79,NNE,32,0.0,1.0,99,0.04,,,0.38,0,Wunderground v.1.15,2013-03-07 04:34:00,
2013-03-06 20:39:00,41.1,40.8,29.79,NNE,31,0.0,1.0,99,0.00,,,0.38,0,Wunderground v.1.15,2013-03-07 04:39:00,
2013-03-06 20:44:00,41.1,40.8,29.79,NNE,31,0.0,0.0,99,0.00,,,0.39,0,Wunderground v.1.15,2013-03-07 04:44:00,
2013-03-06 20:49:00,41.1,40.8,29.79,NNE,32,0.0,0.0,99,0.00,,,0.39,0,Wunderground v.1.15,2013-03-07 04:49:00,
2013-03-06 20:54:00,41.1,40.8,29.79,NNE,32,0.0,0.0,99,0.00,,,0.39,0,Wunderground v.1.15,2013-03-07 04:54:00,
2013-03-06 20:59:00,41.1,40.8,29.79,NNE,31,0.0,0.0,99,0.00,,,0.39,0,Wunderground v.1.15,2013-03-07 04:59:00,
2013-03-06 21:00:00,41.1,40.8,29.79,NNE,32,0.0,0.0,99,0.00,,,0.39,0,Wunderground v.1.15,2013-03-07 05:00:00,
2013-03-06 21:05:00,41.2,40.9,29.80,NNE,31,0.0,0.0,99,0.00,,,0.39,0,Wunderground v.1.15,2013-03-07 05:05:00,
2013-03-06 21:10:00,41.2,40.9,29.80,NNE,32,0.0,0.0,99,0.00,,,0.39,0,Wunderground v.1.15,2013-03-07 05:10:00,
2013-03-06 21:15:00,41.3,41.0,29.81,ESE,117,0.0,2.0,99,0.00,,,0.39,0,Wunderground v.1.15,2013-03-07 05:15:00,
2013-03-06 21:20:00,41.5,41.2,29.81,ESE,123,0.0,1.0,99,0.00,,,0.39,0,Wunderground v.1.15,2013-03-07 05:20:00,
2013-03-06 21:25:00,41.6,41.3,29.81,ESE,123,0.0,1.0,99,0.00,,,0.40,0,Wunderground v.1.15,2013-03-07 05:25:00,
2013-03-06 21:30:00,41.6,41.3,29.81,ESE,123,0.0,0.0,99,0.00,,,0.40,0,Wunderground v.1.15,2013-03-07 05:30:00,
2013-03-06 21:35:00,41.6,41.3,29.81,South,171,1.0,2.0,99,0.00,,,0.40,0,Wunderground v.1.15,2013-03-07 05:35:00,
2013-03-06 21:40:00,41.6,41.3,29.81,South,171,0.0,0.0,99,0.00,,,0.40,0,Wunderground v.1.15,2013-03-07 05:40:00,
2013-03-06 21:45:00,41.6,41.3,29.82,SE,128,0.0,2.0,99,0.00,,,0.40,0,Wunderground v.1.15,2013-03-07 05:45:00,
2013-03-06 21:50:00,41.6,41.3,29.82,SW,229,1.0,1.0,99,0.00,,,0.40,0,Wunderground v.1.15,2013-03-07 05:50:00,
2013-03-06 21:55:00,41.6,41.3,29.82,North,5,0.0,2.0,99,0.00,,,0.40,0,Wunderground v.1.15,2013-03-07 05:55:00,
2013-03-06 22:00:00,41.6,41.3,29.83,North,5,0.0,0.0,99,0.00,,,0.40,0,Wunderground v.1.15,2013-03-07 06:00:00,
2013-03-06 22:05:00,41.6,41.3,29.83,SSW,197,0.0,1.0,99,0.00,,,0.41,0,Wunderground v.1.15,2013-03-07 06:05:00,
2013-03-06 22:10:00,41.6,41.3,29.83,South,186,0.0,0.0,99,0.00,,,0.41,0,Wunderground v.1.15,2013-03-07 06:10:00,
2013-03-06 22:15:00,41.6,41.3,29.84,WSW,248,0.0,1.0,99,0.00,,,0.41,0,Wunderground v.1.15,2013-03-07 06:15:00,
2013-03-06 22:20:00,41.6,41.3,29.84,WSW,248,0.0,0.0,99,0.00,,,0.41,0,Wunderground v.1.15,2013-03-07 06:20:00,
2013-03-06 22:25:00,41.5,41.2,29.84,SE,138,0.0,2.0,99,0.00,,,0.41,0,Wunderground v.1.15,2013-03-07 06:25:00,
2013-03-06 22:30:00,41.5,41.2,29.84,SE,138,0.0,0.0,99,0.00,,,0.42,0,Wunderground v.1.15,2013-03-07 06:30:00,
2013-03-06 22:35:00,41.5,41.2,29.84,SE,138,0.0,0.0,99,0.00,,,0.42,0,Wunderground v.1.15,2013-03-07 06:35:00,
2013-03-06 22:40:00,41.5,41.2,29.84,SE,138,0.0,1.0,99,0.00,,,0.42,0,Wunderground v.1.15,2013-03-07 06:40:00,
2013-03-06 22:45:00,41.5,41.2,29.85,SE,138,0.0,1.0,99,0.00,,,0.42,0,Wunderground v.1.15,2013-03-07 06:45:00,
2013-03-06 22:50:00,41.5,41.2,29.85,SE,138,0.0,0.0,99,0.00,,,0.42,0,Wunderground v.1.15,2013-03-07 06:50:00,
2013-03-06 22:55:00,41.5,41.2,29.85,SE,138,0.0,1.0,99,0.00,,,0.42,0,Wunderground v.1.15,2013-03-07 06:55:00,
2013-03-06 23:00:00,41.5,41.2,29.85,SE,138,0.0,0.0,99,0.00,,,0.42,0,Wunderground v.1.15,2013-03-07 07:00:00,
2013-03-06 23:05:00,41.3,41.0,29.85,SE,138,0.0,1.0,99,0.00,,,0.42,0,Wunderground v.1.15,2013-03-07 07:05:00,
2013-03-06 23:10:00,41.3,41.0,29.85,SE,138,0.0,0.0,99,0.00,,,0.42,0,Wunderground v.1.15,2013-03-07 07:10:00,
2013-03-06 23:15:00,41.3,41.3,29.85,SE,138,0.0,0.0,100,0.00,,,0.42,0,Wunderground v.1.15,2013-03-07 07:15:00,
2013-03-06 23:20:00,41.3,41.3,29.85,SE,138,0.0,0.0,100,0.00,,,0.43,0,Wunderground v.1.15,2013-03-07 07:20:00,
2013-03-06 23:25:00,41.3,41.3,29.85,SE,138,0.0,1.0,100,0.00,,,0.43,0,Wunderground v.1.15,2013-03-07 07:25:00,
2013-03-06 23:30:00,41.3,41.3,29.86,SE,138,0.0,0.0,100,0.00,,,0.43,0,Wunderground v.1.15,2013-03-07 07:30:00,
2013-03-06 23:35:00,41.3,41.3,29.86,SE,138,0.0,0.0,100,0.00,,,0.43,0,Wunderground v.1.15,2013-03-07 07:35:00,
2013-03-06 23:40:00,41.3,41.3,29.86,SE,138,0.0,0.0,100,0.00,,,0.44,0,Wunderground v.1.15,2013-03-07 07:40:00,
2013-03-06 23:45:00,41.3,41.0,29.87,SE,138,0.0,0.0,99,0.00,,,0.44,0,Wunderground v.1.15,2013-03-07 07:45:00,
2013-03-06 23:51:00,41.2,41.2,29.87,SE,138,0.0,0.0,100,0.00,,,0.44,0,Wunderground v.1.15,2013-03-07 07:51:00,
2013-03-06 23:56:00,41.2,41.2,29.87,SE,138,0.0,0.0,100,0.00,,,0.44,0,Wunderground v.1.15,2013-03-07 07:56:00,